sensor_id;sensor_type;location;lat;lon;timestamp;P1;durP1;ratioP1;P2;durP2;ratioP2
58808;SDS011;44579;51.672;7.834;2022-10-18T00:01:07;13.05;;;5.32;;
58808;SDS011;44579;51.672;7.834;2022-10-18T00:03:35;8.98;;;5.18;;
58808;SDS011;44579;51.672;7.834;2022-10-18T00:06:04;10.75;;;5.13;;
58808;SDS011;44579;51.672;7.834;2022-10-18T00:08:36;11.38;;;5.60;;
58808;SDS011;44579;51.672;7.834;2022-10-18T00:11:04;9.93;;;5.55;;
58808;SDS011;44579;51.672;7.834;2022-10-18T00:13:32;11.55;;;5.50;;
58808;SDS011;44579;51.672;7.834;2022-10-18T00:16:00;10.50;;;5.18;;
58808;SDS011;44579;51.672;7.834;2022-10-18T00:18:29;11.18;;;5.38;;
58808;SDS011;44579;51.672;7.834;2022-10-18T00:20:58;10.73;;;5.50;;
58808;SDS011;44579;51.672;7.834;2022-10-18T00:23:31;8.73;;;5.72;;
58808;SDS011;44579;51.672;7.834;2022-10-18T00:26:00;13.73;;;5.85;;
58808;SDS011;44579;51.672;7.834;2022-10-18T00:28:42;14.85;;;6.13;;
58808;SDS011;44579;51.672;7.834;2022-10-18T00:31:15;13.73;;;6.15;;
58808;SDS011;44579;51.672;7.834;2022-10-18T00:33:45;24.70;;;6.15;;
58808;SDS011;44579;51.672;7.834;2022-10-18T00:36:20;14.40;;;6.13;;
58808;SDS011;44579;51.672;7.834;2022-10-18T00:38:49;15.82;;;6.18;;
58808;SDS011;44579;51.672;7.834;2022-10-18T00:41:17;18.85;;;6.40;;
58808;SDS011;44579;51.672;7.834;2022-10-18T00:43:51;20.90;;;5.88;;
58808;SDS011;44579;51.672;7.834;2022-10-18T00:46:20;13.25;;;5.28;;
58808;SDS011;44579;51.672;7.834;2022-10-18T00:48:49;8.52;;;5.13;;
58808;SDS011;44579;51.672;7.834;2022-10-18T00:51:17;14.15;;;5.70;;
58808;SDS011;44579;51.672;7.834;2022-10-18T00:53:46;9.73;;;5.10;;
58808;SDS011;44579;51.672;7.834;2022-10-18T00:56:14;9.02;;;5.70;;
58808;SDS011;44579;51.672;7.834;2022-10-18T00:58:42;8.43;;;5.35;;
58808;SDS011;44579;51.672;7.834;2022-10-18T01:01:12;11.30;;;5.20;;
58808;SDS011;44579;51.672;7.834;2022-10-18T01:03:40;14.38;;;5.05;;
58808;SDS011;44579;51.672;7.834;2022-10-18T01:06:08;8.13;;;4.65;;
58808;SDS011;44579;51.672;7.834;2022-10-18T01:11:17;10.70;;;4.72;;
58808;SDS011;44579;51.672;7.834;2022-10-18T01:16:38;11.70;;;4.72;;
58808;SDS011;44579;51.672;7.834;2022-10-18T01:19:27;12.60;;;5.05;;
58808;SDS011;44579;51.672;7.834;2022-10-18T01:25:35;9.88;;;4.38;;
58808;SDS011;44579;51.672;7.834;2022-10-18T01:27:49;16.85;;;5.25;;
58808;SDS011;44579;51.672;7.834;2022-10-18T01:32:53;8.10;;;4.45;;
58808;SDS011;44579;51.672;7.834;2022-10-18T01:35:33;10.98;;;5.78;;
58808;SDS011;44579;51.672;7.834;2022-10-18T01:38:05;15.52;;;5.43;;
58808;SDS011;44579;51.672;7.834;2022-10-18T01:40:37;10.05;;;5.28;;
58808;SDS011;44579;51.672;7.834;2022-10-18T01:43:07;11.27;;;5.32;;
58808;SDS011;44579;51.672;7.834;2022-10-18T01:45:36;11.50;;;4.50;;
58808;SDS011;44579;51.672;7.834;2022-10-18T01:48:04;9.48;;;5.43;;
58808;SDS011;44579;51.672;7.834;2022-10-18T01:50:33;9.02;;;5.07;;
58808;SDS011;44579;51.672;7.834;2022-10-18T01:53:01;7.32;;;4.60;;
58808;SDS011;44579;51.672;7.834;2022-10-18T01:55:44;7.65;;;5.15;;
58808;SDS011;44579;51.672;7.834;2022-10-18T01:58:28;18.20;;;5.10;;
58808;SDS011;44579;51.672;7.834;2022-10-18T02:01:03;9.77;;;5.32;;
58808;SDS011;44579;51.672;7.834;2022-10-18T02:03:37;10.35;;;4.20;;
58808;SDS011;44579;51.672;7.834;2022-10-18T02:06:20;7.15;;;4.55;;
58808;SDS011;44579;51.672;7.834;2022-10-18T02:09:02;8.60;;;4.57;;
58808;SDS011;44579;51.672;7.834;2022-10-18T02:11:36;7.30;;;4.53;;
58808;SDS011;44579;51.672;7.834;2022-10-18T02:14:09;7.07;;;4.30;;
58808;SDS011;44579;51.672;7.834;2022-10-18T02:16:40;7.60;;;4.53;;
58808;SDS011;44579;51.672;7.834;2022-10-18T02:19:15;12.65;;;3.72;;
58808;SDS011;44579;51.672;7.834;2022-10-18T02:21:59;8.63;;;4.68;;
58808;SDS011;44579;51.672;7.834;2022-10-18T02:24:48;9.23;;;4.75;;
58808;SDS011;44579;51.672;7.834;2022-10-18T02:27:16;10.38;;;4.90;;
58808;SDS011;44579;51.672;7.834;2022-10-18T02:29:44;11.98;;;4.68;;
58808;SDS011;44579;51.672;7.834;2022-10-18T02:35:05;12.02;;;4.80;;
58808;SDS011;44579;51.672;7.834;2022-10-18T02:37:45;10.00;;;4.35;;
58808;SDS011;44579;51.672;7.834;2022-10-18T02:40:14;9.45;;;4.13;;
58808;SDS011;44579;51.672;7.834;2022-10-18T02:42:49;7.57;;;4.20;;
58808;SDS011;44579;51.672;7.834;2022-10-18T02:45:19;8.60;;;4.97;;
58808;SDS011;44579;51.672;7.834;2022-10-18T02:47:47;7.07;;;4.20;;
58808;SDS011;44579;51.672;7.834;2022-10-18T02:50:14;10.35;;;4.72;;
58808;SDS011;44579;51.672;7.834;2022-10-18T02:52:41;6.22;;;3.97;;
58808;SDS011;44579;51.672;7.834;2022-10-18T02:55:09;14.85;;;4.68;;
58808;SDS011;44579;51.672;7.834;2022-10-18T02:57:36;8.48;;;4.45;;
58808;SDS011;44579;51.672;7.834;2022-10-18T03:00:04;7.75;;;4.93;;
58808;SDS011;44579;51.672;7.834;2022-10-18T03:02:32;8.70;;;4.55;;
58808;SDS011;44579;51.672;7.834;2022-10-18T03:04:59;6.97;;;4.25;;
58808;SDS011;44579;51.672;7.834;2022-10-18T03:07:27;10.80;;;4.40;;
58808;SDS011;44579;51.672;7.834;2022-10-18T03:09:55;6.05;;;3.78;;
58808;SDS011;44579;51.672;7.834;2022-10-18T03:17:17;6.00;;;3.88;;
58808;SDS011;44579;51.672;7.834;2022-10-18T03:19:45;7.32;;;4.53;;
58808;SDS011;44579;51.672;7.834;2022-10-18T03:22:12;8.95;;;4.47;;
58808;SDS011;44579;51.672;7.834;2022-10-18T03:24:40;7.50;;;4.30;;
58808;SDS011;44579;51.672;7.834;2022-10-18T03:27:07;14.65;;;4.55;;
58808;SDS011;44579;51.672;7.834;2022-10-18T03:29:35;10.23;;;4.82;;
58808;SDS011;44579;51.672;7.834;2022-10-18T03:32:02;12.98;;;4.30;;
58808;SDS011;44579;51.672;7.834;2022-10-18T03:34:29;8.30;;;4.47;;
58808;SDS011;44579;51.672;7.834;2022-10-18T03:36:56;10.38;;;4.78;;
58808;SDS011;44579;51.672;7.834;2022-10-18T03:39:30;8.23;;;4.43;;
58808;SDS011;44579;51.672;7.834;2022-10-18T03:41:57;14.18;;;5.05;;
58808;SDS011;44579;51.672;7.834;2022-10-18T03:44:24;10.13;;;4.32;;
58808;SDS011;44579;51.672;7.834;2022-10-18T03:46:51;13.55;;;4.90;;
58808;SDS011;44579;51.672;7.834;2022-10-18T03:49:18;13.07;;;5.05;;
58808;SDS011;44579;51.672;7.834;2022-10-18T03:51:46;9.50;;;4.90;;
58808;SDS011;44579;51.672;7.834;2022-10-18T03:54:13;13.40;;;4.50;;
58808;SDS011;44579;51.672;7.834;2022-10-18T03:56:40;8.52;;;4.30;;
58808;SDS011;44579;51.672;7.834;2022-10-18T03:59:08;11.18;;;4.63;;
58808;SDS011;44579;51.672;7.834;2022-10-18T04:01:35;10.50;;;5.03;;
58808;SDS011;44579;51.672;7.834;2022-10-18T04:04:04;7.30;;;4.30;;
58808;SDS011;44579;51.672;7.834;2022-10-18T04:06:32;7.72;;;4.53;;
58808;SDS011;44579;51.672;7.834;2022-10-18T04:08:59;15.68;;;4.80;;
58808;SDS011;44579;51.672;7.834;2022-10-18T04:11:28;8.30;;;4.15;;
58808;SDS011;44579;51.672;7.834;2022-10-18T04:13:55;11.10;;;4.88;;
58808;SDS011;44579;51.672;7.834;2022-10-18T04:16:23;10.82;;;4.80;;
58808;SDS011;44579;51.672;7.834;2022-10-18T04:18:51;11.60;;;5.10;;
58808;SDS011;44579;51.672;7.834;2022-10-18T04:21:18;13.68;;;4.90;;
58808;SDS011;44579;51.672;7.834;2022-10-18T04:23:46;8.32;;;4.50;;
58808;SDS011;44579;51.672;7.834;2022-10-18T04:26:14;8.05;;;4.35;;
58808;SDS011;44579;51.672;7.834;2022-10-18T04:28:42;11.93;;;4.07;;
58808;SDS011;44579;51.672;7.834;2022-10-18T04:31:10;7.50;;;4.25;;
58808;SDS011;44579;51.672;7.834;2022-10-18T04:33:37;6.07;;;4.15;;
58808;SDS011;44579;51.672;7.834;2022-10-18T04:36:04;8.40;;;4.47;;
58808;SDS011;44579;51.672;7.834;2022-10-18T04:38:32;9.65;;;4.47;;
58808;SDS011;44579;51.672;7.834;2022-10-18T04:43:26;6.95;;;4.00;;
58808;SDS011;44579;51.672;7.834;2022-10-18T04:48:21;10.35;;;3.30;;
58808;SDS011;44579;51.672;7.834;2022-10-18T04:53:16;8.48;;;4.30;;
58808;SDS011;44579;51.672;7.834;2022-10-18T04:55:45;8.35;;;4.13;;
58808;SDS011;44579;51.672;7.834;2022-10-18T04:58:16;6.55;;;4.45;;
58808;SDS011;44579;51.672;7.834;2022-10-18T05:00:43;9.05;;;4.65;;
58808;SDS011;44579;51.672;7.834;2022-10-18T05:03:11;11.10;;;5.60;;
58808;SDS011;44579;51.672;7.834;2022-10-18T05:05:42;9.50;;;5.30;;
58808;SDS011;44579;51.672;7.834;2022-10-18T05:08:29;11.35;;;4.10;;
58808;SDS011;44579;51.672;7.834;2022-10-18T05:11:08;10.88;;;4.72;;
58808;SDS011;44579;51.672;7.834;2022-10-18T05:13:36;11.75;;;5.53;;
58808;SDS011;44579;51.672;7.834;2022-10-18T05:16:05;11.23;;;5.60;;
58808;SDS011;44579;51.672;7.834;2022-10-18T05:18:36;6.40;;;4.43;;
58808;SDS011;44579;51.672;7.834;2022-10-18T05:21:04;13.50;;;5.13;;
58808;SDS011;44579;51.672;7.834;2022-10-18T05:23:31;8.77;;;5.05;;
58808;SDS011;44579;51.672;7.834;2022-10-18T05:26:02;9.40;;;5.28;;
58808;SDS011;44579;51.672;7.834;2022-10-18T05:28:32;9.70;;;5.35;;
58808;SDS011;44579;51.672;7.834;2022-10-18T05:31:06;9.60;;;5.50;;
58808;SDS011;44579;51.672;7.834;2022-10-18T05:33:35;12.00;;;5.90;;
58808;SDS011;44579;51.672;7.834;2022-10-18T05:38:29;13.13;;;5.50;;
58808;SDS011;44579;51.672;7.834;2022-10-18T05:40:57;13.98;;;5.50;;
58808;SDS011;44579;51.672;7.834;2022-10-18T05:43:28;12.25;;;5.68;;
58808;SDS011;44579;51.672;7.834;2022-10-18T05:45:55;10.75;;;5.72;;
58808;SDS011;44579;51.672;7.834;2022-10-18T05:48:23;14.07;;;6.28;;
58808;SDS011;44579;51.672;7.834;2022-10-18T05:50:50;12.05;;;6.10;;
58808;SDS011;44579;51.672;7.834;2022-10-18T05:53:17;16.80;;;6.13;;
58808;SDS011;44579;51.672;7.834;2022-10-18T05:56:02;9.98;;;5.70;;
58808;SDS011;44579;51.672;7.834;2022-10-18T05:58:30;15.10;;;5.78;;
58808;SDS011;44579;51.672;7.834;2022-10-18T06:01:00;11.68;;;6.07;;
58808;SDS011;44579;51.672;7.834;2022-10-18T06:03:29;12.13;;;6.45;;
58808;SDS011;44579;51.672;7.834;2022-10-18T06:06:00;11.82;;;6.30;;
58808;SDS011;44579;51.672;7.834;2022-10-18T06:08:32;12.80;;;6.97;;
58808;SDS011;44579;51.672;7.834;2022-10-18T06:11:08;17.20;;;5.72;;
58808;SDS011;44579;51.672;7.834;2022-10-18T06:13:40;12.93;;;6.72;;
58808;SDS011;44579;51.672;7.834;2022-10-18T06:16:13;14.27;;;6.97;;
58808;SDS011;44579;51.672;7.834;2022-10-18T06:18:42;18.13;;;6.95;;
58808;SDS011;44579;51.672;7.834;2022-10-18T06:21:12;12.02;;;6.55;;
58808;SDS011;44579;51.672;7.834;2022-10-18T06:23:39;16.27;;;6.38;;
58808;SDS011;44579;51.672;7.834;2022-10-18T06:26:07;13.82;;;6.70;;
58808;SDS011;44579;51.672;7.834;2022-10-18T06:28:36;16.13;;;5.72;;
58808;SDS011;44579;51.672;7.834;2022-10-18T06:33:32;12.27;;;5.47;;
58808;SDS011;44579;51.672;7.834;2022-10-18T06:36:00;9.65;;;5.70;;
58808;SDS011;44579;51.672;7.834;2022-10-18T06:38:29;16.73;;;6.45;;
58808;SDS011;44579;51.672;7.834;2022-10-18T06:43:25;11.55;;;5.78;;
58808;SDS011;44579;51.672;7.834;2022-10-18T06:45:52;12.55;;;6.50;;
58808;SDS011;44579;51.672;7.834;2022-10-18T06:48:20;12.98;;;6.03;;
58808;SDS011;44579;51.672;7.834;2022-10-18T06:50:54;17.40;;;6.50;;
58808;SDS011;44579;51.672;7.834;2022-10-18T06:53:23;15.13;;;6.22;;
58808;SDS011;44579;51.672;7.834;2022-10-18T06:55:52;16.40;;;6.85;;
58808;SDS011;44579;51.672;7.834;2022-10-18T06:58:24;20.90;;;6.53;;
58808;SDS011;44579;51.672;7.834;2022-10-18T07:00:51;17.02;;;6.60;;
58808;SDS011;44579;51.672;7.834;2022-10-18T07:03:17;15.60;;;6.65;;
58808;SDS011;44579;51.672;7.834;2022-10-18T07:05:47;21.45;;;7.07;;
58808;SDS011;44579;51.672;7.834;2022-10-18T07:08:15;18.63;;;6.82;;
58808;SDS011;44579;51.672;7.834;2022-10-18T07:13:16;17.90;;;6.85;;
58808;SDS011;44579;51.672;7.834;2022-10-18T07:16:05;17.85;;;7.88;;
58808;SDS011;44579;51.672;7.834;2022-10-18T07:18:38;20.23;;;7.10;;
58808;SDS011;44579;51.672;7.834;2022-10-18T07:21:11;14.93;;;7.88;;
58808;SDS011;44579;51.672;7.834;2022-10-18T07:23:40;18.70;;;6.53;;
58808;SDS011;44579;51.672;7.834;2022-10-18T07:26:19;16.67;;;7.35;;
58808;SDS011;44579;51.672;7.834;2022-10-18T07:28:52;16.63;;;7.40;;
58808;SDS011;44579;51.672;7.834;2022-10-18T07:31:27;16.40;;;7.50;;
58808;SDS011;44579;51.672;7.834;2022-10-18T07:36:21;16.85;;;7.88;;
58808;SDS011;44579;51.672;7.834;2022-10-18T07:38:52;18.33;;;8.48;;
58808;SDS011;44579;51.672;7.834;2022-10-18T07:41:20;27.65;;;10.25;;
58808;SDS011;44579;51.672;7.834;2022-10-18T07:43:48;19.45;;;8.98;;
58808;SDS011;44579;51.672;7.834;2022-10-18T07:46:19;25.52;;;9.60;;
58808;SDS011;44579;51.672;7.834;2022-10-18T07:48:47;35.47;;;12.07;;
58808;SDS011;44579;51.672;7.834;2022-10-18T07:51:15;28.55;;;11.60;;
58808;SDS011;44579;51.672;7.834;2022-10-18T07:53:42;25.83;;;10.98;;
58808;SDS011;44579;51.672;7.834;2022-10-18T07:56:11;40.65;;;12.60;;
58808;SDS011;44579;51.672;7.834;2022-10-18T07:58:47;27.20;;;11.98;;
58808;SDS011;44579;51.672;7.834;2022-10-18T08:01:16;35.17;;;12.00;;
58808;SDS011;44579;51.672;7.834;2022-10-18T08:03:44;29.30;;;12.20;;
58808;SDS011;44579;51.672;7.834;2022-10-18T08:06:12;29.17;;;10.10;;
58808;SDS011;44579;51.672;7.834;2022-10-18T08:08:41;26.38;;;10.38;;
58808;SDS011;44579;51.672;7.834;2022-10-18T08:11:10;30.60;;;9.73;;
58808;SDS011;44579;51.672;7.834;2022-10-18T08:13:40;23.38;;;9.18;;
58808;SDS011;44579;51.672;7.834;2022-10-18T08:16:11;38.42;;;13.30;;
58808;SDS011;44579;51.672;7.834;2022-10-18T08:18:40;39.65;;;13.73;;
58808;SDS011;44579;51.672;7.834;2022-10-18T08:21:08;37.72;;;14.00;;
58808;SDS011;44579;51.672;7.834;2022-10-18T08:23:36;36.60;;;15.30;;
58808;SDS011;44579;51.672;7.834;2022-10-18T08:26:05;41.58;;;15.55;;
58808;SDS011;44579;51.672;7.834;2022-10-18T08:28:35;38.55;;;15.00;;
58808;SDS011;44579;51.672;7.834;2022-10-18T08:31:06;44.20;;;16.13;;
58808;SDS011;44579;51.672;7.834;2022-10-18T08:33:35;39.75;;;14.68;;
58808;SDS011;44579;51.672;7.834;2022-10-18T08:36:04;39.28;;;15.93;;
58808;SDS011;44579;51.672;7.834;2022-10-18T08:38:33;43.70;;;15.75;;
58808;SDS011;44579;51.672;7.834;2022-10-18T08:44:04;38.05;;;14.50;;
58808;SDS011;44579;51.672;7.834;2022-10-18T08:46:45;40.60;;;14.63;;
58808;SDS011;44579;51.672;7.834;2022-10-18T08:49:25;46.80;;;16.73;;
58808;SDS011;44579;51.672;7.834;2022-10-18T08:52:14;48.72;;;16.95;;
58808;SDS011;44579;51.672;7.834;2022-10-18T08:55:09;44.30;;;17.40;;
58808;SDS011;44579;51.672;7.834;2022-10-18T08:57:45;55.05;;;17.90;;
58808;SDS011;44579;51.672;7.834;2022-10-18T09:00:17;42.47;;;18.40;;
58808;SDS011;44579;51.672;7.834;2022-10-18T09:13:55;48.05;;;18.75;;
58808;SDS011;44579;51.672;7.834;2022-10-18T09:16:32;50.80;;;18.13;;
58808;SDS011;44579;51.672;7.834;2022-10-18T09:22:22;49.58;;;18.15;;
58808;SDS011;44579;51.672;7.834;2022-10-18T09:25:19;51.83;;;20.38;;
58808;SDS011;44579;51.672;7.834;2022-10-18T09:36:32;49.25;;;18.85;;
58808;SDS011;44579;51.672;7.834;2022-10-18T09:39:49;48.45;;;18.85;;
58808;SDS011;44579;51.672;7.834;2022-10-18T09:44:57;42.55;;;18.38;;
58808;SDS011;44579;51.672;7.834;2022-10-18T09:47:29;44.55;;;16.08;;
58808;SDS011;44579;51.672;7.834;2022-10-18T09:50:05;41.92;;;14.95;;
58808;SDS011;44579;51.672;7.834;2022-10-18T09:52:51;33.72;;;15.60;;
58808;SDS011;44579;51.672;7.834;2022-10-18T09:55:30;41.83;;;16.90;;
58808;SDS011;44579;51.672;7.834;2022-10-18T09:58:04;43.47;;;15.32;;
58808;SDS011;44579;51.672;7.834;2022-10-18T10:00:34;39.45;;;16.08;;
58808;SDS011;44579;51.672;7.834;2022-10-18T10:03:11;42.35;;;16.92;;
58808;SDS011;44579;51.672;7.834;2022-10-18T10:05:40;49.35;;;15.88;;
58808;SDS011;44579;51.672;7.834;2022-10-18T10:08:08;37.75;;;15.93;;
58808;SDS011;44579;51.672;7.834;2022-10-18T10:10:40;53.25;;;18.90;;
58808;SDS011;44579;51.672;7.834;2022-10-18T10:13:15;48.58;;;17.67;;
58808;SDS011;44579;51.672;7.834;2022-10-18T10:15:55;40.95;;;17.27;;
58808;SDS011;44579;51.672;7.834;2022-10-18T10:18:28;44.42;;;16.65;;
58808;SDS011;44579;51.672;7.834;2022-10-18T10:21:03;38.22;;;16.33;;
58808;SDS011;44579;51.672;7.834;2022-10-18T10:23:36;50.03;;;17.50;;
58808;SDS011;44579;51.672;7.834;2022-10-18T10:26:20;48.70;;;19.35;;
58808;SDS011;44579;51.672;7.834;2022-10-18T10:29:35;51.42;;;16.92;;
58808;SDS011;44579;51.672;7.834;2022-10-18T10:32:14;39.80;;;16.98;;
58808;SDS011;44579;51.672;7.834;2022-10-18T10:34:43;45.38;;;17.45;;
58808;SDS011;44579;51.672;7.834;2022-10-18T10:40:04;38.95;;;17.45;;
58808;SDS011;44579;51.672;7.834;2022-10-18T10:42:51;45.65;;;17.83;;
58808;SDS011;44579;51.672;7.834;2022-10-18T10:45:55;40.60;;;16.25;;
58808;SDS011;44579;51.672;7.834;2022-10-18T10:48:30;47.20;;;19.70;;
58808;SDS011;44579;51.672;7.834;2022-10-18T10:51:05;42.55;;;18.30;;
58808;SDS011;44579;51.672;7.834;2022-10-18T10:53:39;36.78;;;15.88;;
58808;SDS011;44579;51.672;7.834;2022-10-18T10:56:17;38.88;;;15.02;;
58808;SDS011;44579;51.672;7.834;2022-10-18T10:58:54;36.95;;;13.98;;
58808;SDS011;44579;51.672;7.834;2022-10-18T11:01:27;33.00;;;13.70;;
58808;SDS011;44579;51.672;7.834;2022-10-18T11:04:00;41.78;;;17.77;;
58808;SDS011;44579;51.672;7.834;2022-10-18T11:09:05;33.97;;;12.77;;
58808;SDS011;44579;51.672;7.834;2022-10-18T11:12:07;43.80;;;15.23;;
58808;SDS011;44579;51.672;7.834;2022-10-18T11:14:50;31.25;;;12.50;;
58808;SDS011;44579;51.672;7.834;2022-10-18T11:17:41;36.08;;;14.13;;
58808;SDS011;44579;51.672;7.834;2022-10-18T11:20:34;33.42;;;14.63;;
58808;SDS011;44579;51.672;7.834;2022-10-18T11:23:07;31.60;;;13.57;;
58808;SDS011;44579;51.672;7.834;2022-10-18T11:28:17;28.45;;;13.10;;
58808;SDS011;44579;51.672;7.834;2022-10-18T11:31:01;27.88;;;11.55;;
58808;SDS011;44579;51.672;7.834;2022-10-18T11:34:02;30.80;;;10.93;;
58808;SDS011;44579;51.672;7.834;2022-10-18T11:42:46;35.17;;;13.93;;
58808;SDS011;44579;51.672;7.834;2022-10-18T11:45:27;41.13;;;13.38;;
58808;SDS011;44579;51.672;7.834;2022-10-18T11:51:14;26.85;;;11.65;;
58808;SDS011;44579;51.672;7.834;2022-10-18T11:54:29;27.92;;;11.93;;
58808;SDS011;44579;51.672;7.834;2022-10-18T12:06:13;32.88;;;9.20;;
58808;SDS011;44579;51.672;7.834;2022-10-18T12:08:51;24.08;;;9.70;;
58808;SDS011;44579;51.672;7.834;2022-10-18T12:11:27;22.27;;;9.07;;
58808;SDS011;44579;51.672;7.834;2022-10-18T12:13:59;30.02;;;9.80;;
58808;SDS011;44579;51.672;7.834;2022-10-18T12:16:33;20.92;;;9.40;;
58808;SDS011;44579;51.672;7.834;2022-10-18T12:19:21;18.20;;;7.88;;
58808;SDS011;44579;51.672;7.834;2022-10-18T12:21:56;22.77;;;7.75;;
58808;SDS011;44579;51.672;7.834;2022-10-18T12:24:36;18.05;;;6.57;;
58808;SDS011;44579;51.672;7.834;2022-10-18T12:27:08;16.17;;;7.55;;
58808;SDS011;44579;51.672;7.834;2022-10-18T12:29:41;18.90;;;8.57;;
58808;SDS011;44579;51.672;7.834;2022-10-18T12:32:25;22.17;;;8.93;;
58808;SDS011;44579;51.672;7.834;2022-10-18T12:35:10;20.75;;;8.85;;
58808;SDS011;44579;51.672;7.834;2022-10-18T12:40:50;14.95;;;6.38;;
58808;SDS011;44579;51.672;7.834;2022-10-18T12:43:21;23.55;;;4.45;;
58808;SDS011;44579;51.672;7.834;2022-10-18T12:45:59;8.80;;;4.03;;
58808;SDS011;44579;51.672;7.834;2022-10-18T12:48:29;16.30;;;5.40;;
58808;SDS011;44579;51.672;7.834;2022-10-18T12:53:38;12.07;;;3.85;;
58808;SDS011;44579;51.672;7.834;2022-10-18T13:09:37;12.13;;;4.72;;
58808;SDS011;44579;51.672;7.834;2022-10-18T13:17:55;16.58;;;6.80;;
58808;SDS011;44579;51.672;7.834;2022-10-18T13:20:36;17.95;;;6.40;;
58808;SDS011;44579;51.672;7.834;2022-10-18T13:26:23;20.33;;;5.53;;
58808;SDS011;44579;51.672;7.834;2022-10-18T13:31:57;17.05;;;4.28;;
58808;SDS011;44579;51.672;7.834;2022-10-18T13:34:46;15.15;;;4.82;;
58808;SDS011;44579;51.672;7.834;2022-10-18T13:39:41;18.83;;;6.05;;
58808;SDS011;44579;51.672;7.834;2022-10-18T13:44:42;15.18;;;4.53;;
58808;SDS011;44579;51.672;7.834;2022-10-18T13:47:11;15.15;;;4.32;;
58808;SDS011;44579;51.672;7.834;2022-10-18T13:56:10;8.05;;;2.50;;
58808;SDS011;44579;51.672;7.834;2022-10-18T14:05:23;5.63;;;2.03;;
58808;SDS011;44579;51.672;7.834;2022-10-18T14:08:11;10.85;;;3.20;;
58808;SDS011;44579;51.672;7.834;2022-10-18T14:11:10;14.68;;;3.00;;
58808;SDS011;44579;51.672;7.834;2022-10-18T14:13:43;11.13;;;2.75;;
58808;SDS011;44579;51.672;7.834;2022-10-18T14:17:01;5.82;;;1.83;;
58808;SDS011;44579;51.672;7.834;2022-10-18T14:19:16;12.88;;;2.38;;
58808;SDS011;44579;51.672;7.834;2022-10-18T14:21:48;9.73;;;3.15;;
58808;SDS011;44579;51.672;7.834;2022-10-18T14:24:24;14.70;;;2.30;;
58808;SDS011;44579;51.672;7.834;2022-10-18T14:29:47;14.32;;;2.45;;
58808;SDS011;44579;51.672;7.834;2022-10-18T14:32:20;10.63;;;2.00;;
58808;SDS011;44579;51.672;7.834;2022-10-18T14:34:53;6.22;;;1.75;;
58808;SDS011;44579;51.672;7.834;2022-10-18T14:37:41;8.63;;;1.67;;
58808;SDS011;44579;51.672;7.834;2022-10-18T14:43:00;6.30;;;1.83;;
58808;SDS011;44579;51.672;7.834;2022-10-18T14:45:30;7.45;;;1.77;;
58808;SDS011;44579;51.672;7.834;2022-10-18T14:50:41;9.35;;;1.67;;
58808;SDS011;44579;51.672;7.834;2022-10-18T14:53:16;7.05;;;1.98;;
58808;SDS011;44579;51.672;7.834;2022-10-18T14:55:54;6.28;;;1.60;;
58808;SDS011;44579;51.672;7.834;2022-10-18T14:58:22;3.40;;;1.52;;
58808;SDS011;44579;51.672;7.834;2022-10-18T15:00:49;8.65;;;1.83;;
58808;SDS011;44579;51.672;7.834;2022-10-18T15:03:16;7.88;;;1.90;;
58808;SDS011;44579;51.672;7.834;2022-10-18T15:05:52;3.58;;;1.50;;
58808;SDS011;44579;51.672;7.834;2022-10-18T15:08:38;5.90;;;1.42;;
58808;SDS011;44579;51.672;7.834;2022-10-18T15:11:06;7.82;;;1.27;;
58808;SDS011;44579;51.672;7.834;2022-10-18T15:13:47;7.20;;;1.20;;
58808;SDS011;44579;51.672;7.834;2022-10-18T15:16:20;9.13;;;2.08;;
58808;SDS011;44579;51.672;7.834;2022-10-18T15:18:59;6.70;;;1.17;;
58808;SDS011;44579;51.672;7.834;2022-10-18T15:21:28;5.93;;;1.17;;
58808;SDS011;44579;51.672;7.834;2022-10-18T15:24:17;8.02;;;1.75;;
58808;SDS011;44579;51.672;7.834;2022-10-18T15:26:52;11.23;;;1.75;;
58808;SDS011;44579;51.672;7.834;2022-10-18T15:29:21;5.47;;;1.15;;
58808;SDS011;44579;51.672;7.834;2022-10-18T15:31:50;7.93;;;1.70;;
58808;SDS011;44579;51.672;7.834;2022-10-18T15:36:47;8.32;;;1.42;;
58808;SDS011;44579;51.672;7.834;2022-10-18T15:39:20;4.05;;;1.25;;
58808;SDS011;44579;51.672;7.834;2022-10-18T15:41:50;8.02;;;1.20;;
58808;SDS011;44579;51.672;7.834;2022-10-18T15:44:23;3.17;;;1.05;;
58808;SDS011;44579;51.672;7.834;2022-10-18T15:54:47;6.28;;;1.25;;
58808;SDS011;44579;51.672;7.834;2022-10-18T15:57:14;4.40;;;0.98;;
58808;SDS011;44579;51.672;7.834;2022-10-18T15:59:57;3.78;;;0.80;;
58808;SDS011;44579;51.672;7.834;2022-10-18T16:02:37;7.47;;;1.95;;
58808;SDS011;44579;51.672;7.834;2022-10-18T16:05:04;3.28;;;0.93;;
58808;SDS011;44579;51.672;7.834;2022-10-18T16:07:31;4.93;;;1.02;;
58808;SDS011;44579;51.672;7.834;2022-10-18T16:09:58;9.82;;;1.13;;
58808;SDS011;44579;51.672;7.834;2022-10-18T16:12:25;4.10;;;1.67;;
58808;SDS011;44579;51.672;7.834;2022-10-18T16:14:53;10.10;;;1.02;;
58808;SDS011;44579;51.672;7.834;2022-10-18T16:17:20;3.97;;;1.23;;
58808;SDS011;44579;51.672;7.834;2022-10-18T16:19:47;9.30;;;1.00;;
58808;SDS011;44579;51.672;7.834;2022-10-18T16:22:14;4.40;;;1.02;;
58808;SDS011;44579;51.672;7.834;2022-10-18T16:24:41;5.22;;;0.93;;
58808;SDS011;44579;51.672;7.834;2022-10-18T16:27:08;6.05;;;1.15;;
58808;SDS011;44579;51.672;7.834;2022-10-18T16:29:37;13.15;;;1.17;;
58808;SDS011;44579;51.672;7.834;2022-10-18T16:32:06;3.95;;;1.00;;
58808;SDS011;44579;51.672;7.834;2022-10-18T16:34:33;5.25;;;1.00;;
58808;SDS011;44579;51.672;7.834;2022-10-18T16:37:00;6.72;;;1.27;;
58808;SDS011;44579;51.672;7.834;2022-10-18T16:39:27;8.55;;;1.20;;
58808;SDS011;44579;51.672;7.834;2022-10-18T16:41:59;6.70;;;1.20;;
58808;SDS011;44579;51.672;7.834;2022-10-18T16:44:26;5.80;;;1.05;;
58808;SDS011;44579;51.672;7.834;2022-10-18T16:46:53;7.28;;;1.38;;
58808;SDS011;44579;51.672;7.834;2022-10-18T16:49:24;4.90;;;0.93;;
58808;SDS011;44579;51.672;7.834;2022-10-18T16:51:52;4.10;;;1.13;;
58808;SDS011;44579;51.672;7.834;2022-10-18T16:54:20;2.80;;;1.05;;
58808;SDS011;44579;51.672;7.834;2022-10-18T16:56:47;8.18;;;1.13;;
58808;SDS011;44579;51.672;7.834;2022-10-18T16:59:23;8.38;;;1.27;;
58808;SDS011;44579;51.672;7.834;2022-10-18T17:01:52;6.15;;;1.38;;
58808;SDS011;44579;51.672;7.834;2022-10-18T17:04:19;5.78;;;1.45;;
58808;SDS011;44579;51.672;7.834;2022-10-18T17:06:46;3.35;;;1.30;;
58808;SDS011;44579;51.672;7.834;2022-10-18T17:09:14;2.63;;;1.23;;
58808;SDS011;44579;51.672;7.834;2022-10-18T17:11:41;4.57;;;1.65;;
58808;SDS011;44579;51.672;7.834;2022-10-18T17:14:09;2.63;;;1.17;;
58808;SDS011;44579;51.672;7.834;2022-10-18T17:16:36;7.25;;;1.65;;
58808;SDS011;44579;51.672;7.834;2022-10-18T17:19:06;4.45;;;1.55;;
58808;SDS011;44579;51.672;7.834;2022-10-18T17:21:36;4.10;;;1.23;;
58808;SDS011;44579;51.672;7.834;2022-10-18T17:24:04;4.32;;;1.30;;
58808;SDS011;44579;51.672;7.834;2022-10-18T17:26:32;2.60;;;1.00;;
58808;SDS011;44579;51.672;7.834;2022-10-18T17:29:01;4.88;;;1.27;;
58808;SDS011;44579;51.672;7.834;2022-10-18T17:31:31;3.38;;;1.33;;
58808;SDS011;44579;51.672;7.834;2022-10-18T17:36:28;2.67;;;1.20;;
58808;SDS011;44579;51.672;7.834;2022-10-18T17:38:56;9.57;;;1.67;;
58808;SDS011;44579;51.672;7.834;2022-10-18T17:41:24;3.85;;;1.60;;
58808;SDS011;44579;51.672;7.834;2022-10-18T17:43:52;5.03;;;2.53;;
58808;SDS011;44579;51.672;7.834;2022-10-18T17:46:19;5.88;;;2.05;;
58808;SDS011;44579;51.672;7.834;2022-10-18T17:48:46;7.05;;;2.25;;
58808;SDS011;44579;51.672;7.834;2022-10-18T17:51:14;5.88;;;2.10;;